Hauptseite
METAR-TAF:

METAR-TAF

Flughäfen :

Flugplatz Laupheim

Laupheim, Deutschland

Breite: 48-13N, Länge: 009-55E, Höhe: 538 m

Beobachtung

Neuester Wetterbericht von vor 20 Minuten, um 05:20 UTC
Wind 4 kt aus Nord
Temperatur 3°C
Luftfeuchtigkeit 93%
Luftdruck 1006 hPa
Sichtweite: 2000 m
Geschlossene Wolkendecke in der Höhe von 200 ft
feuchter Dunst

METAR: ETHL 170520Z 01004KT 2000 BR OVC002 03/02 Q1006 AMB

Zeit: 06:40 (05:40 UTC)


TAF: fehlend

Wetterbeobachtungen und Prognosen von mehr als 4000 Flughäfen (METAR und TAF Bericht).

Die verfügbaren Stationen werden durch gelbe und rote Markierungen auf der Karte dargestellt.

Führen Sie die Maus auf sie, um den Namen der Station zu sehen.

Darauf klicken, um die Beobachtung von Wetterbeobachtungen und Prognosen zu sehen.

Um die Karte zu ändern : klicken Sie auf den grünen Tasten mit einem schwarzen Kreuz Zum Vergrößern, auf den grünen Button mit einem Gedankenstrich zu verkleinern, oder auf die grünen Pfeile für benachbarte Karten.


METAR-TAF: